Time;durP1;ratioP1;P1;durP2;ratioP2;P2;SDS_P1;SDS_P2;PMS_P1;PMS_P2;Temp;Humidity;BMP_temperature;BMP_pressure;BME280_temperature;BME280_humidity;BME280_pressure;Samples;Min_cycle;Max_cycle;Signal;HPM_P1;HPM_P2
2021/01/02 00:02:46;;;;;;;199.07;90.50;;;;;;;-3.33;85.37;97776.55;1857474;76;21084;-73
2021/01/02 00:05:14;;;;;;;182.97;82.80;;;;;;;-3.26;85.19;97770.77;1857581;76;21512;-72
2021/01/02 00:07:56;;;;;;;186.65;82.88;;;;;;;-3.24;84.97;97768.25;1857439;77;21219;-72
2021/01/02 00:10:39;;;;;;;182.35;82.40;;;;;;;-3.24;84.97;97772.73;1857575;76;21762;-71
2021/01/02 00:13:13;;;;;;;162.97;68.47;;;;;;;-3.24;85.05;97778.04;1857568;77;21492;-71
2021/01/02 00:16:03;;;;;;;163.18;72.82;;;;;;;-3.26;85.06;97774.23;1857656;76;21355;-72
2021/01/02 00:18:36;;;;;;;186.10;83.27;;;;;;;-3.26;85.16;97766.80;1857224;77;21027;-72
2021/01/02 00:21:22;;;;;;;182.02;81.80;;;;;;;-3.25;85.14;97781.17;1857541;76;21550;-72
2021/01/02 00:24:06;;;;;;;147.62;67.72;;;;;;;-3.23;85.46;97771.72;1857305;77;21460;-71
2021/01/02 00:26:45;;;;;;;173.30;74.77;;;;;;;-3.15;85.40;97784.80;1857517;76;21094;-72
2021/01/02 00:29:21;;;;;;;145.85;71.37;;;;;;;-3.09;85.60;97780.52;1857687;77;21137;-71
2021/01/02 00:32:17;;;;;;;162.65;70.92;;;;;;;-3.03;85.64;97787.69;1857654;76;21118;-71
2021/01/02 00:35:08;;;;;;;154.23;71.77;;;;;;;-3.03;85.26;97787.69;1847407;76;22644;-71
2021/01/02 00:37:37;;;;;;;153.60;72.58;;;;;;;-3.01;85.30;97781.16;1786132;79;21135;-72
2021/01/02 00:40:18;;;;;;;145.00;68.97;;;;;;;-2.98;84.98;97790.57;1817741;78;21179;-72
2021/01/02 00:42:46;;;;;;;161.18;72.85;;;;;;;-3.05;84.69;97788.41;1817656;78;21607;-71
2021/01/02 00:45:16;;;;;;;208.57;97.30;;;;;;;-3.11;84.59;97805.91;1817877;78;20969;-72
2021/01/02 00:47:42;;;;;;;166.32;72.87;;;;;;;-3.16;84.78;97811.81;1817523;78;21000;-72
2021/01/02 00:50:14;;;;;;;125.82;58.33;;;;;;;-3.13;85.05;97800.81;1817763;78;21185;-72
2021/01/02 00:53:10;;;;;;;101.78;44.13;;;;;;;-3.07;84.55;97797.06;1817731;79;21539;-73
2021/01/02 00:55:50;;;;;;;118.10;48.98;;;;;;;-3.12;84.61;97789.70;1817773;79;21503;-72
2021/01/02 00:58:29;;;;;;;100.20;49.83;;;;;;;-3.19;84.82;97789.66;1802621;79;21130;-72
2021/01/02 01:01:03;;;;;;;100.25;48.33;;;;;;;-3.19;85.14;97787.52;1818012;78;21109;-73
2021/01/02 01:03:57;;;;;;;121.85;51.02;;;;;;;-3.12;85.24;97793.16;1817774;79;21848;-71
2021/01/02 01:06:24;;;;;;;130.03;55.45;;;;;;;-3.02;85.58;97795.95;1817866;78;21210;-71
2021/01/02 01:08:53;;;;;;;130.32;61.40;;;;;;;-2.93;85.33;97796.89;1786165;79;21475;-72
2021/01/02 01:11:20;;;;;;;137.92;63.15;;;;;;;-2.96;85.02;97800.47;1817950;78;21055;-72
2021/01/02 01:13:49;;;;;;;147.87;64.55;;;;;;;-2.93;85.07;97793.42;1817688;79;21130;-72
2021/01/02 01:16:15;;;;;;;132.15;57.38;;;;;;;-2.82;85.03;97798.14;1817937;79;21091;-72
2021/01/02 01:19:03;;;;;;;132.15;60.95;;;;;;;-2.81;84.72;97798.48;1735678;79;21396;-72
2021/01/02 01:21:31;;;;;;;138.60;65.30;;;;;;;-2.82;84.71;97800.80;1817814;79;21043;-72
2021/01/02 01:24:15;;;;;;;131.05;61.15;;;;;;;-2.74;85.06;97809.89;1817851;79;21554;-73
2021/01/02 01:27:02;;;;;;;138.92;63.28;;;;;;;-2.67;84.78;97811.25;1817765;78;21011;-72
2021/01/02 01:29:52;;;;;;;118.08;56.05;;;;;;;-2.63;84.70;97808.52;1817683;79;21035;-72
2021/01/02 01:32:23;;;;;;;129.70;64.58;;;;;;;-2.53;85.02;97807.61;1817251;79;22052;-72
2021/01/02 01:34:58;;;;;;;117.87;55.25;;;;;;;-2.44;85.08;97811.71;1817641;79;21086;-72
2021/01/02 01:37:31;;;;;;;118.65;61.10;;;;;;;-2.38;84.85;97806.12;1817740;79;21123;-72
2021/01/02 01:39:57;;;;;;;144.30;61.48;;;;;;;-2.31;84.93;97813.07;1817611;78;21118;-72
2021/01/02 01:42:44;;;;;;;137.95;66.42;;;;;;;-2.19;85.00;97819.09;1817777;78;21622;-72
2021/01/02 01:45:41;;;;;;;127.00;59.00;;;;;;;-2.12;85.08;97819.41;1817453;79;21183;-72
2021/01/02 01:48:10;;;;;;;121.97;53.90;;;;;;;-1.99;85.06;97810.61;1817059;79;21138;-73
2021/01/02 01:51:17;;;;;;;122.98;56.18;;;;;;;-1.90;84.77;97813.87;1817087;79;21110;-73
2021/01/02 01:54:21;;;;;;;114.60;51.98;;;;;;;-1.85;84.70;97801.62;1817021;79;21658;-72
2021/01/02 01:56:50;;;;;;;115.52;53.55;;;;;;;-1.88;84.31;97814.00;1779016;80;21120;-72
2021/01/02 01:59:24;;;;;;;113.47;58.25;;;;;;;-1.89;84.35;97804.38;1810238;79;22159;-73
2021/01/02 02:01:55;;;;;;;139.80;68.40;;;;;;;-1.89;84.39;97811.52;1785641;79;21075;-72
2021/01/02 02:05:00;;;;;;;125.33;63.42;;;;;;;-1.88;84.64;97809.17;1817075;78;21473;-72
2021/01/02 02:07:49;;;;;;;133.15;63.63;;;;;;;-1.80;84.82;97812.43;1817090;79;21519;-72
2021/01/02 02:10:23;;;;;;;136.47;66.90;;;;;;;-1.79;84.54;97813.28;1816687;79;21190;-72
2021/01/02 02:12:54;;;;;;;112.57;58.20;;;;;;;-1.86;84.85;97802.66;1813358;79;21199;-73
2021/01/02 02:15:26;;;;;;;131.10;60.05;;;;;;;-1.81;84.44;97796.70;1816983;78;21539;-73
2021/01/02 02:18:06;;;;;;;121.82;56.83;;;;;;;-1.80;84.61;97803.13;1817012;79;21118;-73
2021/01/02 02:20:34;;;;;;;116.05;54.77;;;;;;;-1.83;84.41;97794.27;1813869;79;21485;-72
2021/01/02 02:23:07;;;;;;;111.35;52.90;;;;;;;-1.82;84.66;97794.56;1817112;79;21091;-72
2021/01/02 02:25:59;;;;;;;117.85;51.55;;;;;;;-1.83;84.41;97797.43;1817176;78;21176;-72
2021/01/02 02:28:52;;;;;;;100.25;53.83;;;;;;;-1.78;84.58;97793.14;1817134;79;21055;-72
2021/01/02 02:31:19;;;;;;;100.75;51.68;;;;;;;-1.71;84.76;97795.28;1817137;79;21492;-72
2021/01/02 02:34:00;;;;;;;88.62;43.58;;;;;;;-1.67;84.72;97802.83;1816954;79;21119;-72
2021/01/02 02:36:29;;;;;;;105.27;52.70;;;;;;;-1.63;84.68;97790.23;1817114;79;21114;-72
2021/01/02 02:39:07;;;;;;;93.30;42.80;;;;;;;-1.67;84.61;97800.17;1817193;79;21538;-72
2021/01/02 02:41:49;;;;;;;99.17;44.80;;;;;;;-1.60;84.54;97800.47;1816792;78;21178;-72
2021/01/02 02:44:19;;;;;;;89.30;43.52;;;;;;;-1.60;84.54;97800.47;1817110;79;21422;-73
2021/01/02 02:46:45;;;;;;;91.10;44.95;;;;;;;-1.62;84.41;97799.87;1817007;78;21122;-73
2021/01/02 02:49:18;;;;;;;93.78;46.23;;;;;;;-1.57;84.20;97793.41;1816997;78;21473;-73
2021/01/02 02:52:12;;;;;;;90.32;46.33;;;;;;;-1.62;85.00;97794.55;1817071;78;21519;-72
2021/01/02 02:54:38;;;;;;;93.82;45.17;;;;;;;-1.49;84.77;97804.33;1817125;79;21046;-73
2021/01/02 02:57:05;;;;;;;87.10;43.50;;;;;;;-1.46;84.73;97795.92;1817038;79;21558;-73
2021/01/02 02:59:31;;;;;;;92.62;45.23;;;;;;;-1.50;85.56;97786.23;1816989;78;21487;-73
2021/01/02 03:01:57;;;;;;;99.00;44.35;;;;;;;-1.44;85.26;97797.89;1817139;79;21504;-73
2021/01/02 03:04:24;;;;;;;96.25;45.12;;;;;;;-1.43;85.37;97780.91;1817062;79;22143;-73
2021/01/02 03:06:50;;;;;;;93.05;43.05;;;;;;;-1.43;85.21;97787.55;1817115;79;21023;-73
2021/01/02 03:09:16;;;;;;;98.52;48.30;;;;;;;-1.35;84.72;97787.33;1817080;79;21135;-73
2021/01/02 03:11:43;;;;;;;86.08;43.87;;;;;;;-1.36;84.85;97788.36;1817127;79;21019;-73
2021/01/02 03:14:10;;;;;;;94.03;43.90;;;;;;;-1.36;85.24;97772.92;1816915;79;21099;-73
2021/01/02 03:16:36;;;;;;;86.87;44.50;;;;;;;-1.30;84.76;97776.86;1817068;79;21535;-73
2021/01/02 03:19:05;;;;;;;93.62;46.55;;;;;;;-1.31;84.92;97789.05;1816951;79;21034;-73
2021/01/02 03:21:30;;;;;;;94.87;46.10;;;;;;;-1.27;84.76;97790.27;1817287;79;21039;-73
2021/01/02 03:23:58;;;;;;;98.00;45.85;;;;;;;-1.33;84.87;97780.47;1816980;79;21566;-73
2021/01/02 03:26:24;;;;;;;100.42;49.80;;;;;;;-1.30;84.81;97786.69;1817028;79;21131;-73
2021/01/02 03:28:51;;;;;;;106.00;54.70;;;;;;;-1.25;84.58;97794.34;1817116;79;21124;-73
2021/01/02 03:31:19;;;;;;;94.83;46.00;;;;;;;-1.33;84.71;97798.56;1816929;79;21489;-73
2021/01/02 03:33:45;;;;;;;330.48;124.42;;;;;;;-1.34;84.53;97795.60;1816876;79;21118;-73
2021/01/02 03:36:12;;;;;;;124.27;57.70;;;;;;;-1.39;84.71;97792.74;1817090;79;21019;-73
2021/01/02 03:38:38;;;;;;;130.47;56.23;;;;;;;-1.36;84.55;97793.67;1816965;79;21171;-73
2021/01/02 03:41:04;;;;;;;117.85;52.15;;;;;;;-1.43;84.76;97787.55;1817021;79;21539;-74
2021/01/02 03:43:31;;;;;;;101.72;44.98;;;;;;;-1.48;84.80;97785.51;1816994;79;21174;-73
2021/01/02 03:45:57;;;;;;;80.57;39.03;;;;;;;-1.54;85.08;97784.19;1817065;79;21126;-73
2021/01/02 03:48:23;;;;;;;66.70;34.85;;;;;;;-1.53;84.70;97784.52;1816975;79;21185;-73
2021/01/02 03:50:49;;;;;;;70.97;38.13;;;;;;;-1.59;84.55;97778.70;1817030;79;21452;-73
2021/01/02 03:53:16;;;;;;;86.60;39.45;;;;;;;-1.62;84.60;97779.09;1816977;79;21681;-73
2021/01/02 03:55:43;;;;;;;85.25;40.15;;;;;;;-1.60;84.76;97779.22;1816917;78;21075;-73
2021/01/02 03:58:09;;;;;;;92.17;42.98;;;;;;;-1.55;84.68;97781.23;1817033;79;21190;-73
2021/01/02 04:00:35;;;;;;;89.32;42.73;;;;;;;-1.56;84.70;97779.60;1816946;79;21110;-73
2021/01/02 04:03:02;;;;;;;108.70;46.85;;;;;;;-1.54;84.78;97782.37;1816990;79;22077;-73
2021/01/02 04:05:28;;;;;;;112.45;49.50;;;;;;;-1.58;84.35;97783.80;1817001;78;21172;-73
2021/01/02 04:07:54;;;;;;;95.87;46.20;;;;;;;-1.63;84.31;97792.08;1816985;79;21642;-73
2021/01/02 04:10:21;;;;;;;93.72;45.75;;;;;;;-1.64;84.57;97791.78;1817009;79;21476;-73
2021/01/02 04:12:47;;;;;;;121.02;52.67;;;;;;;-1.67;84.86;97808.14;1817162;79;21169;-73
2021/01/02 04:15:13;;;;;;;116.62;51.53;;;;;;;-1.70;84.79;97800.09;1816872;79;21169;-73
2021/01/02 04:17:40;;;;;;;127.70;57.27;;;;;;;-1.70;84.63;97802.74;1817049;79;21188;-73
2021/01/02 04:20:07;;;;;;;107.97;51.33;;;;;;;-1.73;84.88;97801.81;1816884;78;21542;-73
2021/01/02 04:22:33;;;;;;;94.97;51.08;;;;;;;-1.77;84.71;97800.09;1817023;79;21789;-73
2021/01/02 04:25:00;;;;;;;224.22;74.42;;;;;;;-1.81;84.51;97792.20;1817037;78;21023;-73
2021/01/02 04:27:26;;;;;;;126.25;52.23;;;;;;;-1.83;84.30;97789.47;1816961;79;21102;-73
2021/01/02 04:29:53;;;;;;;119.15;54.40;;;;;;;-1.88;84.31;97805.19;1817042;79;21253;-73
2021/01/02 04:32:19;;;;;;;114.95;52.55;;;;;;;-2.04;84.64;97787.34;1816924;79;21499;-73
2021/01/02 04:34:45;;;;;;;134.67;54.53;;;;;;;-2.06;84.59;97792.53;1785317;79;21106;-73
2021/01/02 04:37:12;;;;;;;90.77;43.68;;;;;;;-2.13;85.04;97802.36;1817069;79;21019;-73
2021/01/02 04:39:38;;;;;;;111.80;53.80;;;;;;;-2.07;84.73;97799.69;1817073;79;21086;-73
2021/01/02 04:42:04;;;;;;;103.22;51.33;;;;;;;-2.12;84.52;97803.98;1817086;79;21184;-73
2021/01/02 04:44:31;;;;;;;113.45;60.98;;;;;;;-2.17;84.79;97802.45;1816882;78;21503;-73
2021/01/02 04:46:57;;;;;;;96.60;46.63;;;;;;;-2.14;84.93;97804.69;1817019;79;21578;-73
2021/01/02 04:49:23;;;;;;;88.78;44.48;;;;;;;-2.16;85.59;97808.06;1816949;79;21594;-73
2021/01/02 04:51:49;;;;;;;100.47;49.20;;;;;;;-2.14;85.27;97812.13;1816961;78;21440;-73
2021/01/02 04:54:16;;;;;;;96.60;46.28;;;;;;;-2.09;84.98;97815.01;1816882;79;21968;-73
2021/01/02 04:56:42;;;;;;;91.05;43.95;;;;;;;-2.10;84.73;97820.02;1785590;79;21051;-73
2021/01/02 04:59:11;;;;;;;90.42;45.50;;;;;;;-2.10;84.68;97817.36;1816973;79;21028;-73
2021/01/02 05:01:39;;;;;;;94.40;45.08;;;;;;;-2.14;84.85;97821.94;1816360;79;21098;-73
2021/01/02 05:04:06;;;;;;;89.97;43.00;;;;;;;-2.15;85.14;97822.96;1817033;78;21185;-73
2021/01/02 05:09:14;;;;;;;94.20;41.63;;;;;;;-2.14;85.89;97821.42;1836981;78;22608;-71
2021/01/02 05:11:40;;;;;;;77.58;35.83;;;;;;;-2.17;85.29;97826.34;1787890;79;21546;-71
2021/01/02 05:14:07;;;;;;;95.92;43.70;;;;;;;-2.17;85.04;97826.34;1777227;80;21582;-71
2021/01/02 05:16:35;;;;;;;88.97;43.63;;;;;;;-2.23;85.56;97827.95;1777289;79;21034;-71
2021/01/02 05:19:08;;;;;;;317.13;148.27;;;;;;;-2.17;85.32;97831.14;1777573;80;20869;-71
2021/01/02 05:21:37;;;;;;;458.48;252.60;;;;;;;-2.16;84.77;97827.97;1777327;79;21459;-72
2021/01/02 05:26:55;;;;;;;183.75;92.78;;;;;;;-2.14;85.14;97828.06;1818744;78;22711;-72
2021/01/02 05:29:29;;;;;;;99.32;48.85;;;;;;;-2.13;85.07;97828.40;1785081;80;20968;-72
2021/01/02 05:32:03;;;;;;;90.53;46.73;;;;;;;-2.09;84.67;97837.58;1785073;79;21492;-73
2021/01/02 05:34:32;;;;;;;113.77;62.85;;;;;;;-2.18;84.31;97841.45;1784961;80;21122;-73
2021/01/02 05:37:09;;;;;;;74.85;41.13;;;;;;;-2.31;84.76;97843.59;1785249;79;21543;-73
2021/01/02 05:39:49;;;;;;;108.50;46.15;;;;;;;-2.34;84.39;97849.80;1784981;80;21094;-73
2021/01/02 05:42:12;;;;;;;78.62;42.88;;;;;;;-2.44;84.42;97844.88;1784785;79;21042;-72
2021/01/02 05:44:39;;;;;;;73.65;38.20;;;;;;;-2.48;84.43;97846.80;1784985;80;21701;-72
2021/01/02 05:47:08;;;;;;;78.52;43.60;;;;;;;-2.54;84.63;97848.95;1784912;79;21110;-72
2021/01/02 05:49:44;;;;;;;74.90;39.17;;;;;;;-2.56;85.40;97850.48;1778178;80;21122;-71
2021/01/02 05:52:11;;;;;;;87.42;45.03;;;;;;;-2.56;85.14;97849.97;1784659;79;21571;-73
2021/01/02 05:57:28;;;;;;;91.28;48.52;;;;;;;-2.37;85.28;97862.16;1812132;79;22739;-71
2021/01/02 05:59:57;;;;;;;88.20;48.50;;;;;;;-2.38;85.21;97869.30;1785637;80;20976;-72
2021/01/02 06:02:25;;;;;;;;;;;;;;;-2.38;85.33;97860.52;1787644;80;22159;-73
2021/01/02 06:05:02;;;;;;;116.05;53.20;;;;;;;-2.35;85.15;97864.91;1785326;80;20159;-72
2021/01/02 06:07:30;;;;;;;80.92;43.13;;;;;;;-2.38;84.68;97866.65;1785397;80;21132;-73
2021/01/02 06:09:57;;;;;;;107.92;49.27;;;;;;;-2.39;84.69;97865.02;1785238;80;21150;-72
2021/01/02 06:12:36;;;;;;;152.38;71.07;;;;;;;-2.42;84.87;97870.70;1785298;80;21461;-72
2021/01/02 06:15:06;;;;;;;144.80;66.92;;;;;;;-2.51;85.85;97852.00;1780022;80;22383;-72
2021/01/02 06:17:35;;;;;;;132.15;63.30;;;;;;;-2.43;84.94;97869.07;1785305;80;21150;-72
2021/01/02 06:20:13;;;;;;;101.55;47.40;;;;;;;-2.44;85.08;97863.97;1785230;80;21154;-72
2021/01/02 06:22:43;;;;;;;86.00;44.55;;;;;;;-2.39;85.08;97866.86;1785624;80;21143;-73
2021/01/02 06:25:12;;;;;;;86.97;44.20;;;;;;;-2.39;85.45;97870.32;1785299;80;21150;-71
2021/01/02 06:27:45;;;;;;;79.15;39.42;;;;;;;-2.36;85.85;97867.77;1785388;80;26226;-71
2021/01/02 06:30:18;;;;;;;84.80;42.13;;;;;;;-2.41;86.32;97862.23;1785148;80;21051;-72
2021/01/02 06:32:46;;;;;;;81.78;41.23;;;;;;;-2.39;85.90;97862.36;1785153;80;21127;-72
2021/01/02 06:35:16;;;;;;;90.42;43.33;;;;;;;-2.34;85.35;97857.76;1785108;80;21182;-71
2021/01/02 06:37:54;;;;;;;119.85;65.30;;;;;;;-2.31;85.53;97862.66;1785449;80;21111;-72
2021/01/02 06:40:33;;;;;;;103.75;53.13;;;;;;;-2.25;85.47;97864.52;1785342;80;21646;-73
2021/01/02 06:43:02;;;;;;;85.85;47.53;;;;;;;-2.18;85.47;97860.55;1776971;80;21531;-73
2021/01/02 06:45:44;;;;;;;139.22;65.97;;;;;;;-2.13;85.43;97868.23;1784892;80;21496;-73
2021/01/02 06:48:25;;;;;;;164.03;83.03;;;;;;;-2.11;85.22;97869.34;1785265;80;21591;-72
2021/01/02 06:51:00;;;;;;;156.57;83.72;;;;;;;-2.13;84.96;97857.61;1785206;80;21552;-71
2021/01/02 06:53:36;;;;;;;142.18;72.62;;;;;;;-2.14;84.92;97872.38;1784162;80;21415;-73
2021/01/02 06:56:10;;;;;;;171.77;90.77;;;;;;;-2.16;84.67;97863.30;1778862;80;21044;-71
2021/01/02 06:58:46;;;;;;;168.45;88.17;;;;;;;-2.17;85.03;97856.87;1768848;81;21097;-73
2021/01/02 07:01:24;;;;;;;156.70;86.72;;;;;;;-2.12;84.89;97863.22;1768757;81;21115;-73
2021/01/02 07:03:50;;;;;;;112.55;58.92;;;;;;;-2.10;85.10;97867.81;1702735;84;21595;-72
2021/01/02 07:06:26;;;;;;;95.28;46.75;;;;;;;-2.05;85.20;97866.70;1702633;84;21493;-72
2021/01/02 07:09:11;;;;;;;87.08;41.70;;;;;;;-2.02;85.05;97872.11;1702186;84;21571;-72
2021/01/02 07:11:44;;;;;;;83.33;43.87;;;;;;;-2.07;84.72;97871.89;1740916;81;21488;-73
2021/01/02 07:14:19;;;;;;;73.72;38.50;;;;;;;-2.11;84.90;97871.48;1746913;81;21575;-72
2021/01/02 07:17:01;;;;;;;49.95;22.32;;;;;;;-2.05;84.89;97871.17;1768111;81;21071;-72
2021/01/02 07:19:39;;;;;;;75.67;39.40;;;;;;;-1.97;85.06;97879.45;1768150;81;21687;-71
2021/01/02 07:22:20;;;;;;;89.92;44.95;;;;;;;-1.96;85.56;97887.75;1768057;81;21457;-73
2021/01/02 07:24:52;;;;;;;119.72;59.80;;;;;;;-1.87;85.74;97886.53;1768159;81;21128;-72
2021/01/02 07:27:23;;;;;;;133.97;66.97;;;;;;;-1.83;85.60;97883.25;1768189;81;21174;-72
2021/01/02 07:29:51;;;;;;;92.88;50.15;;;;;;;-1.79;85.21;97881.84;1768308;81;21112;-72
2021/01/02 07:32:29;;;;;;;92.45;47.78;;;;;;;-1.75;85.46;97875.59;1768232;81;21543;-72
2021/01/02 07:35:03;;;;;;;95.60;53.33;;;;;;;-1.68;85.43;97883.56;1768163;81;21130;-73
2021/01/02 07:37:33;;;;;;;99.70;53.68;;;;;;;-1.61;85.39;97884.39;1768157;81;21556;-73
2021/01/02 07:40:15;;;;;;;143.32;73.75;;;;;;;-1.57;85.24;97883.75;1767311;81;21579;-73
2021/01/02 07:42:50;;;;;;;112.97;55.60;;;;;;;-1.62;85.39;97880.91;1767302;81;21174;-71
2021/01/02 07:45:19;;;;;;;99.07;52.62;;;;;;;-1.54;85.24;97887.35;1768170;81;21606;-72
2021/01/02 07:47:49;;;;;;;93.55;43.85;;;;;;;-1.46;85.99;97885.78;1768153;81;21131;-72
2021/01/02 07:50:19;;;;;;;306.20;142.07;;;;;;;-1.36;85.25;97882.73;1768109;81;21111;-72
2021/01/02 07:52:59;;;;;;;139.90;65.65;;;;;;;-1.31;85.17;97888.22;1768105;81;21154;-73
2021/01/02 07:55:29;;;;;;;143.35;73.62;;;;;;;-1.24;84.98;97889.03;1768001;81;21210;-72
2021/01/02 07:57:55;;;;;;;127.60;66.85;;;;;;;-1.26;84.88;97887.10;1767817;81;22466;-72
2021/01/02 08:00:22;;;;;;;152.20;75.87;;;;;;;-1.22;85.05;97879.00;1768114;81;21191;-73
2021/01/02 08:02:49;;;;;;;120.90;62.40;;;;;;;-1.18;84.98;97889.55;1768167;81;21235;-73
2021/01/02 08:05:20;;;;;;;101.87;53.95;;;;;;;-1.10;84.94;97895.67;1681900;84;21214;-73
2021/01/02 08:07:58;;;;;;;120.80;63.85;;;;;;;-1.15;84.47;97890.45;1702140;84;21186;-73
2021/01/02 08:10:25;;;;;;;102.92;55.90;;;;;;;-1.13;84.76;97898.21;1768255;81;21659;-72
2021/01/02 08:12:56;;;;;;;217.90;102.55;;;;;;;-1.16;84.50;97899.45;1768053;81;21638;-72
2021/01/02 08:15:35;;;;;;;257.67;136.20;;;;;;;-1.17;84.56;97908.46;1701879;84;21586;-72
2021/01/02 08:18:06;;;;;;;171.87;94.52;;;;;;;-1.18;85.03;97898.84;1702179;84;21159;-72
2021/01/02 08:20:33;;;;;;;261.75;119.08;;;;;;;-1.17;85.22;97911.63;1702120;83;21083;-72
2021/01/02 08:23:07;;;;;;;239.72;105.52;;;;;;;-1.10;85.01;97910.30;1702154;84;21326;-72
2021/01/02 08:25:34;;;;;;;226.88;107.05;;;;;;;-1.09;84.95;97907.94;1702028;84;21481;-73
2021/01/02 08:28:00;;;;;;;246.95;110.00;;;;;;;-1.02;84.96;97909.56;1702195;84;21190;-73
2021/01/02 08:30:26;;;;;;;176.72;87.70;;;;;;;-0.98;84.85;97910.77;1702106;84;21206;-73
2021/01/02 08:32:54;;;;;;;138.82;69.32;;;;;;;-0.87;85.06;97910.11;1702199;84;21106;-72
2021/01/02 08:35:29;;;;;;;140.73;72.77;;;;;;;-0.83;84.99;97905.20;1702465;84;21208;-73
2021/01/02 08:38:08;;;;;;;98.00;55.43;;;;;;;-0.79;84.94;97909.07;1702114;84;21383;-73
2021/01/02 08:40:45;;;;;;;167.82;79.12;;;;;;;-0.70;84.92;97909.66;1701695;83;21484;-71
2021/01/02 08:43:25;;;;;;;278.55;136.85;;;;;;;-0.60;84.55;97912.67;1767474;81;21146;-71
2021/01/02 08:46:00;;;;;;;242.60;125.22;;;;;;;-0.54;84.71;97912.36;1768163;81;21111;-73
2021/01/02 08:48:27;;;;;;;239.20;126.38;;;;;;;-0.40;84.64;97909.95;1768229;81;21269;-72
2021/01/02 08:50:54;;;;;;;178.62;94.25;;;;;;;-0.38;84.59;97915.36;1768029;81;21073;-72
2021/01/02 08:56:26;;;;;;;220.65;118.85;;;;;;;-0.27;84.43;97924.52;1790056;78;22005;-71
2021/01/02 08:58:53;;;;;;;175.32;97.15;;;;;;;-0.34;84.66;97932.56;1747989;82;21177;-72
2021/01/02 09:01:20;;;;;;;240.68;105.63;;;;;;;-0.29;84.52;97938.56;1747870;80;21100;-72
2021/01/02 09:03:46;;;;;;;251.92;121.22;;;;;;;-0.23;84.05;97934.25;1747715;82;21189;-72
2021/01/02 09:06:27;;;;;;;261.20;123.85;;;;;;;-0.38;85.13;97933.19;1747796;80;21482;-72
2021/01/02 09:09:02;;;;;;;272.67;133.18;;;;;;;-0.32;84.78;97939.81;1747865;82;21133;-72
2021/01/02 09:11:28;;;;;;;296.60;139.82;;;;;;;-0.27;84.80;97934.35;1747171;80;21564;-72
2021/01/02 09:14:06;;;;;;;288.82;132.27;;;;;;;-0.20;84.79;97946.61;1738612;82;21648;-72
2021/01/02 09:16:33;;;;;;;284.67;141.80;;;;;;;-0.15;84.36;97942.80;1747742;80;21054;-72
2021/01/02 09:18:59;;;;;;;368.97;182.88;;;;;;;-0.18;84.81;97939.22;1747730;82;21665;-72
2021/01/02 09:21:26;;;;;;;360.05;181.12;;;;;;;-0.11;84.89;97951.99;1747890;80;21157;-72
2021/01/02 09:23:53;;;;;;;370.60;176.60;;;;;;;-0.01;84.83;97952.86;1747833;82;21122;-72
2021/01/02 09:26:37;;;;;;;351.88;171.60;;;;;;;0.06;84.99;97947.50;1747793;80;21131;-72
2021/01/02 09:29:15;;;;;;;348.98;154.65;;;;;;;0.18;84.86;97956.46;1741125;82;21188;-71
2021/01/02 09:31:41;;;;;;;330.07;156.28;;;;;;;0.25;84.53;97960.69;1747842;80;21058;-72
2021/01/02 09:34:09;;;;;;;323.62;141.73;;;;;;;0.20;84.50;97949.88;1747662;82;21081;-71
2021/01/02 09:36:35;;;;;;;403.02;167.30;;;;;;;0.15;85.66;97948.36;1747807;80;21170;-72
2021/01/02 09:39:01;;;;;;;217.25;97.37;;;;;;;0.25;84.73;97947.36;1747718;82;21189;-72
2021/01/02 09:41:28;;;;;;;334.10;144.05;;;;;;;0.33;84.55;97944.95;1747826;80;21169;-72
2021/01/02 09:43:55;;;;;;;283.65;133.40;;;;;;;0.36;84.84;97941.88;1747794;82;21208;-72
2021/01/02 09:46:23;;;;;;;166.30;81.57;;;;;;;0.46;85.48;97942.21;1747751;80;21479;-72
2021/01/02 09:48:52;;;;;;;141.82;70.67;;;;;;;0.58;85.95;97936.98;1747759;82;21137;-72
2021/01/02 09:51:19;;;;;;;252.45;97.92;;;;;;;0.69;85.69;97950.95;1747868;80;21514;-72
2021/01/02 09:53:45;;;;;;;197.70;91.30;;;;;;;0.81;85.25;97945.72;1747760;82;21150;-72
2021/01/02 09:56:11;;;;;;;199.72;106.72;;;;;;;0.90;85.26;97940.40;1747676;80;21042;-72
2021/01/02 09:58:38;;;;;;;187.05;90.10;;;;;;;1.03;85.26;97944.81;1747779;82;21197;-72
2021/01/02 10:01:05;;;;;;;115.00;62.50;;;;;;;1.08;85.68;97940.94;1747769;80;21204;-72
2021/01/02 10:03:31;;;;;;;133.32;69.00;;;;;;;1.16;84.93;97949.19;1747720;82;21197;-72
2021/01/02 10:05:58;;;;;;;86.42;50.25;;;;;;;1.20;85.76;97947.69;1747496;80;21143;-72
2021/01/02 10:08:24;;;;;;;80.38;46.98;;;;;;;1.29;85.27;97939.72;1747301;82;21206;-71
2021/01/02 10:10:51;;;;;;;317.40;108.90;;;;;;;1.33;85.23;97942.23;1747168;80;21474;-71
2021/01/02 10:13:18;;;;;;;113.60;65.03;;;;;;;1.43;85.08;97939.84;1747238;82;21121;-71
2021/01/02 10:15:45;;;;;;;100.40;52.05;;;;;;;1.45;85.49;97940.43;1747085;80;21274;-71
2021/01/02 10:18:12;;;;;;;113.80;65.92;;;;;;;1.53;85.00;97937.98;1747190;82;21121;-71
2021/01/02 10:20:38;;;;;;;133.45;72.97;;;;;;;1.50;85.33;97933.09;1747214;80;21165;-72
2021/01/02 10:23:05;;;;;;;177.20;95.17;;;;;;;1.51;85.17;97934.73;1747199;82;21169;-72
2021/01/02 10:25:31;;;;;;;199.50;97.10;;;;;;;1.55;84.83;97928.73;1747127;80;21483;-71
2021/01/02 10:27:57;;;;;;;128.38;69.12;;;;;;;1.56;84.61;97919.67;1747186;82;21617;-72
2021/01/02 10:30:24;;;;;;;115.67;60.05;;;;;;;1.55;84.85;97918.56;1747118;80;21370;-72
2021/01/02 10:32:51;;;;;;;157.03;81.95;;;;;;;1.56;85.38;97909.52;1747219;82;21209;-72
2021/01/02 10:35:17;;;;;;;221.97;94.10;;;;;;;1.63;85.09;97917.74;1747092;80;21157;-72
2021/01/02 10:37:46;;;;;;;102.38;56.98;;;;;;;1.75;85.21;97914.30;1747256;82;21177;-72
2021/01/02 10:40:14;;;;;;;61.00;35.15;;;;;;;1.89;85.51;97915.77;1747170;80;21135;-73
2021/01/02 10:42:40;;;;;;;66.00;36.80;;;;;;;2.02;84.96;97900.86;1747087;82;21575;-73
2021/01/02 10:45:11;;;;;;;75.37;41.48;;;;;;;2.15;85.00;97906.03;1715786;80;21130;-74
2021/01/02 10:47:37;;;;;;;114.30;56.60;;;;;;;2.30;84.98;97906.11;1747260;82;21125;-73
2021/01/02 10:50:05;;;;;;;106.07;59.33;;;;;;;2.41;84.71;97896.79;1747165;80;21133;-73
2021/01/02 10:52:31;;;;;;;62.17;35.20;;;;;;;2.43;84.84;97898.70;1747120;82;21365;-73
2021/01/02 10:54:58;;;;;;;71.45;42.50;;;;;;;2.50;84.84;97897.27;1747062;82;21527;-73
2021/01/02 10:57:26;;;;;;;94.97;46.13;;;;;;;2.53;84.81;97888.25;1747309;80;21204;-73
2021/01/02 10:59:52;;;;;;;98.47;56.50;;;;;;;2.62;84.89;97895.93;1747371;82;21586;-73
2021/01/02 11:02:19;;;;;;;87.47;49.30;;;;;;;2.67;84.78;97884.02;1747205;80;21046;-73
2021/01/02 11:04:46;;;;;;;78.78;48.28;;;;;;;2.66;84.38;97887.75;1747162;82;21546;-73
2021/01/02 11:07:12;;;;;;;93.52;52.20;;;;;;;2.62;83.65;97882.03;1747221;80;21065;-73
2021/01/02 11:09:39;;;;;;;93.17;56.95;;;;;;;2.70;84.01;97879.53;1747138;82;21042;-73
2021/01/02 11:12:06;;;;;;;87.42;51.00;;;;;;;2.69;83.87;97884.59;1747251;80;21221;-73
2021/01/02 11:14:32;;;;;;;74.62;43.75;;;;;;;2.66;83.74;97881.06;1715609;82;21117;-73
2021/01/02 11:16:59;;;;;;;76.37;43.83;;;;;;;2.72;83.94;97889.47;1747136;80;21187;-72
2021/01/02 11:19:27;;;;;;;77.92;41.48;;;;;;;2.71;83.76;97877.15;1747021;82;21649;-71
2021/01/02 11:21:57;;;;;;;67.25;41.98;;;;;;;2.85;83.89;97876.41;1747233;80;21192;-71
2021/01/02 11:24:28;;;;;;;89.87;49.65;;;;;;;2.87;83.89;97870.28;1747178;82;21835;-72
2021/01/02 11:26:58;;;;;;;97.72;48.95;;;;;;;3.00;84.21;97872.73;1746337;80;21145;-73
2021/01/02 11:29:26;;;;;;;105.22;51.48;;;;;;;3.13;84.10;97871.12;1747115;82;21561;-73
2021/01/02 11:31:53;;;;;;;128.55;62.70;;;;;;;3.24;84.02;97866.79;1747140;80;21069;-73
2021/01/02 11:34:19;;;;;;;104.60;53.85;;;;;;;3.27;83.59;97862.33;1747159;82;21193;-73
2021/01/02 11:36:52;;;;;;;83.10;48.92;;;;;;;3.29;83.69;97858.87;1747185;80;21154;-73
2021/01/02 11:39:18;;;;;;;92.62;50.67;;;;;;;3.32;83.36;97860.54;1747252;82;21157;-73
2021/01/02 11:41:45;;;;;;;129.15;64.92;;;;;;;3.37;83.55;97855.83;1747072;80;21633;-73
2021/01/02 11:44:15;;;;;;;80.03;42.00;;;;;;;3.36;83.19;97854.20;1747081;82;21589;-73
2021/01/02 11:46:47;;;;;;;72.35;38.75;;;;;;;3.39;83.18;97852.37;1747158;80;21077;-73